Time;durP1;ratioP1;P1;durP2;ratioP2;P2;SDS_P1;SDS_P2;PMS_P1;PMS_P2;Temp;Humidity;BMP_temperature;BMP_pressure;BME280_temperature;BME280_humidity;BME280_pressure;Samples;Min_cycle;Max_cycle;Signal;HPM_P1;HPM_P2
2023/09/17 00:00:12;;;;;;;370.58;75.40;;;;;;;;;;4968701;28;20027;-57
2023/09/17 00:02:37;;;;;;;306.80;72.85;;;;;;;;;;4969997;28;20475;-57
2023/09/17 00:05:03;;;;;;;294.63;72.93;;;;;;;;;;4970614;28;20027;-58
2023/09/17 00:07:29;;;;;;;258.60;72.07;;;;;;;;;;4974661;28;20400;-56
2023/09/17 00:09:54;;;;;;;310.60;74.18;;;;;;;;;;4978367;28;20072;-56
2023/09/17 00:12:19;;;;;;;246.60;72.75;;;;;;;;;;4968437;28;20485;-56
2023/09/17 00:14:45;;;;;;;225.38;72.43;;;;;;;;;;4969944;28;20365;-56
2023/09/17 00:17:11;;;;;;;479.20;82.53;;;;;;;;;;4967297;28;20097;-56
2023/09/17 00:19:36;;;;;;;261.75;73.90;;;;;;;;;;4969294;28;20462;-56
2023/09/17 00:22:03;;;;;;;243.45;71.22;;;;;;;;;;4970152;28;20070;-55
2023/09/17 00:24:28;;;;;;;332.60;73.43;;;;;;;;;;4968473;28;20077;-56
2023/09/17 00:26:54;;;;;;;257.23;71.78;;;;;;;;;;4970294;28;20459;-56
2023/09/17 00:29:19;;;;;;;206.07;70.22;;;;;;;;;;4969245;28;20365;-57
2023/09/17 00:31:44;;;;;;;346.85;76.13;;;;;;;;;;4969226;28;20105;-56
2023/09/17 00:34:10;;;;;;;332.20;76.93;;;;;;;;;;4969452;28;20461;-57
2023/09/17 00:36:35;;;;;;;255.50;73.60;;;;;;;;;;4969658;28;20473;-56
2023/09/17 00:39:00;;;;;;;226.63;72.43;;;;;;;;;;4970477;28;20027;-56
2023/09/17 00:41:26;;;;;;;227.23;63.53;;;;;;;;;;4977403;28;20765;-56
2023/09/17 00:43:51;;;;;;;248.82;67.20;;;;;;;;;;4975165;28;20802;-55
2023/09/17 00:46:16;;;;;;;337.38;71.63;;;;;;;;;;4969194;28;20034;-56
2023/09/17 00:48:42;;;;;;;252.65;69.50;;;;;;;;;;4970903;28;20023;-56
2023/09/17 00:51:07;;;;;;;377.13;75.25;;;;;;;;;;4969194;28;20042;-56
2023/09/17 00:53:34;;;;;;;284.83;71.47;;;;;;;;;;4974712;28;20517;-57
2023/09/17 00:55:59;;;;;;;229.70;69.80;;;;;;;;;;4972841;28;20027;-55
2023/09/17 00:58:27;;;;;;;279.77;73.13;;;;;;;;;;4971528;28;20015;-57
2023/09/17 01:00:53;;;;;;;242.93;71.35;;;;;;;;;;4972988;28;20270;-56
2023/09/17 01:03:18;;;;;;;385.10;77.00;;;;;;;;;;4972191;28;20019;-56
2023/09/17 01:05:44;;;;;;;327.23;75.25;;;;;;;;;;4972241;28;20086;-56
2023/09/17 01:08:10;;;;;;;336.00;75.20;;;;;;;;;;4975106;28;20560;-57
2023/09/17 01:10:39;;;;;;;251.32;72.53;;;;;;;;;;4974828;28;20411;-56
2023/09/17 01:13:05;;;;;;;311.63;68.75;;;;;;;;;;4971855;28;20022;-57
2023/09/17 01:15:30;;;;;;;211.23;67.15;;;;;;;;;;4972943;28;20049;-57
2023/09/17 01:17:57;;;;;;;237.33;69.93;;;;;;;;;;4971902;28;20029;-56
2023/09/17 01:20:29;;;;;;;418.85;77.65;;;;;;;;;;4972121;28;20622;-56
2023/09/17 01:22:56;;;;;;;216.07;64.13;;;;;;;;;;4972558;28;20077;-58
2023/09/17 01:25:28;;;;;;;423.30;78.10;;;;;;;;;;4970861;28;20029;-57
2023/09/17 01:27:54;;;;;;;219.82;70.72;;;;;;;;;;4970472;28;20025;-57
2023/09/17 01:30:21;;;;;;;325.60;75.03;;;;;;;;;;4973339;28;20026;-57
2023/09/17 01:32:47;;;;;;;339.80;74.88;;;;;;;;;;4972086;28;20021;-57
2023/09/17 01:35:13;;;;;;;381.13;74.85;;;;;;;;;;4971478;28;20015;-57
2023/09/17 01:37:41;;;;;;;282.13;71.38;;;;;;;;;;4971955;28;20413;-58
2023/09/17 01:40:10;;;;;;;267.83;71.35;;;;;;;;;;4970304;28;20033;-57
2023/09/17 01:42:36;;;;;;;253.32;71.72;;;;;;;;;;4979408;28;20557;-57
2023/09/17 01:45:02;;;;;;;311.48;73.15;;;;;;;;;;4976572;28;20030;-59
2023/09/17 01:47:28;;;;;;;237.95;71.28;;;;;;;;;;4970830;28;20039;-58
2023/09/17 01:49:57;;;;;;;247.40;71.47;;;;;;;;;;4973127;28;20133;-59
2023/09/17 01:52:25;;;;;;;410.45;78.53;;;;;;;;;;4970651;28;20027;-57
2023/09/17 01:54:50;;;;;;;230.52;62.95;;;;;;;;;;4971062;28;20387;-57
2023/09/17 01:57:15;;;;;;;377.67;72.80;;;;;;;;;;4972003;28;20513;-57
2023/09/17 01:59:40;;;;;;;259.17;70.03;;;;;;;;;;4973650;28;20062;-57
2023/09/17 02:02:06;;;;;;;200.90;69.57;;;;;;;;;;4970707;28;20357;-56
2023/09/17 02:04:31;;;;;;;265.55;73.28;;;;;;;;;;4973435;28;20294;-57
2023/09/17 02:06:56;;;;;;;277.27;72.88;;;;;;;;;;4972663;28;20382;-58
2023/09/17 02:09:22;;;;;;;366.83;77.65;;;;;;;;;;4971663;28;20396;-57
2023/09/17 02:11:48;;;;;;;272.50;73.60;;;;;;;;;;4971470;28;20065;-57
2023/09/17 02:14:14;;;;;;;422.80;80.75;;;;;;;;;;4971634;28;20071;-57
2023/09/17 02:16:40;;;;;;;236.07;74.22;;;;;;;;;;4972045;28;20103;-58
2023/09/17 02:19:05;;;;;;;256.13;75.32;;;;;;;;;;4972680;28;20034;-57
2023/09/17 02:21:30;;;;;;;280.70;75.93;;;;;;;;;;4971011;28;20395;-57
2023/09/17 02:23:56;;;;;;;274.38;75.45;;;;;;;;;;4972899;28;20669;-58
2023/09/17 02:26:21;;;;;;;427.83;83.10;;;;;;;;;;4969813;28;20034;-58
2023/09/17 02:28:47;;;;;;;276.05;77.13;;;;;;;;;;4971266;28;21047;-57
2023/09/17 02:31:13;;;;;;;303.88;78.65;;;;;;;;;;4961128;28;20119;-57
2023/09/17 02:33:38;;;;;;;354.55;79.57;;;;;;;;;;4960314;28;20030;-58
2023/09/17 02:36:03;;;;;;;257.80;77.50;;;;;;;;;;4965164;28;20035;-57
2023/09/17 02:38:29;;;;;;;245.18;76.65;;;;;;;;;;4971001;28;20029;-57
2023/09/17 02:40:54;;;;;;;336.98;78.90;;;;;;;;;;4970277;28;20490;-58
2023/09/17 02:43:20;;;;;;;385.65;83.78;;;;;;;;;;4969473;28;20033;-60
2023/09/17 02:45:45;;;;;;;304.90;78.88;;;;;;;;;;4972751;28;20026;-57
2023/09/17 02:48:14;;;;;;;339.50;80.20;;;;;;;;;;4969601;28;20105;-58
2023/09/17 02:50:42;;;;;;;294.42;79.28;;;;;;;;;;4970643;28;20502;-58
2023/09/17 02:53:07;;;;;;;235.93;66.13;;;;;;;;;;4970429;28;20031;-56
2023/09/17 02:55:34;;;;;;;294.83;68.57;;;;;;;;;;4968272;28;20069;-56
2023/09/17 02:58:01;;;;;;;246.68;70.85;;;;;;;;;;4972293;28;20052;-57
2023/09/17 03:00:26;;;;;;;416.55;78.15;;;;;;;;;;4968255;28;20033;-56
2023/09/17 03:02:54;;;;;;;289.13;73.23;;;;;;;;;;4970360;28;20027;-57
2023/09/17 03:05:20;;;;;;;391.42;77.90;;;;;;;;;;4969676;28;20313;-59
2023/09/17 03:07:46;;;;;;;331.67;73.97;;;;;;;;;;4970188;28;20022;-59
2023/09/17 03:10:12;;;;;;;246.75;71.82;;;;;;;;;;4971487;28;20394;-58
2023/09/17 03:12:38;;;;;;;280.13;72.97;;;;;;;;;;4969213;28;20541;-58
2023/09/17 03:15:05;;;;;;;312.75;74.88;;;;;;;;;;4970059;28;20113;-58
2023/09/17 03:17:30;;;;;;;211.63;71.22;;;;;;;;;;4977038;28;20041;-60
2023/09/17 03:19:55;;;;;;;225.97;71.07;;;;;;;;;;4975231;28;20093;-58
2023/09/17 03:22:20;;;;;;;482.57;80.83;;;;;;;;;;4967243;28;20810;-59
2023/09/17 03:24:45;;;;;;;254.50;71.00;;;;;;;;;;4968989;28;20750;-59
2023/09/17 03:27:11;;;;;;;240.70;72.23;;;;;;;;;;4969203;28;20660;-60
2023/09/17 03:29:36;;;;;;;343.33;76.93;;;;;;;;;;4968215;28;20272;-59
2023/09/17 03:32:02;;;;;;;249.82;73.93;;;;;;;;;;4969021;28;20035;-58
2023/09/17 03:34:27;;;;;;;394.13;81.07;;;;;;;;;;4970685;28;20057;-58
2023/09/17 03:36:52;;;;;;;321.65;76.25;;;;;;;;;;4968120;28;20073;-57
2023/09/17 03:39:17;;;;;;;364.93;80.67;;;;;;;;;;4968267;28;20089;-55
2023/09/17 03:41:43;;;;;;;292.38;75.78;;;;;;;;;;4967988;28;20347;-56
2023/09/17 03:44:09;;;;;;;273.88;75.20;;;;;;;;;;4970866;28;20042;-55
2023/09/17 03:46:36;;;;;;;275.52;76.43;;;;;;;;;;4970626;28;20117;-56
2023/09/17 03:49:02;;;;;;;272.40;76.40;;;;;;;;;;4971138;28;20026;-57
2023/09/17 03:51:28;;;;;;;426.33;84.13;;;;;;;;;;4969167;28;20447;-57
2023/09/17 03:53:54;;;;;;;265.02;76.40;;;;;;;;;;4971570;28;20482;-56
2023/09/17 03:56:19;;;;;;;393.92;80.93;;;;;;;;;;4968815;28;20034;-56
2023/09/17 03:58:45;;;;;;;287.60;78.28;;;;;;;;;;4970273;28;20054;-56
2023/09/17 04:01:10;;;;;;;256.70;77.05;;;;;;;;;;4970103;28;20312;-56
2023/09/17 04:03:36;;;;;;;330.30;80.32;;;;;;;;;;4967736;28;20127;-55
2023/09/17 04:06:04;;;;;;;249.50;77.05;;;;;;;;;;4969294;28;20038;-59
2023/09/17 04:08:30;;;;;;;394.50;82.97;;;;;;;;;;4969590;28;20014;-59
2023/09/17 04:10:55;;;;;;;309.30;78.32;;;;;;;;;;4970226;28;20361;-60
2023/09/17 04:13:20;;;;;;;419.05;85.03;;;;;;;;;;4969415;28;20023;-59
2023/09/17 04:15:46;;;;;;;269.00;78.80;;;;;;;;;;4970608;28;20438;-60
2023/09/17 04:18:11;;;;;;;324.33;80.05;;;;;;;;;;4970602;28;20041;-59
2023/09/17 04:20:36;;;;;;;301.65;79.72;;;;;;;;;;4969170;28;20486;-58
2023/09/17 04:23:02;;;;;;;259.70;77.70;;;;;;;;;;4967932;28;20461;-59
2023/09/17 04:25:27;;;;;;;393.13;82.20;;;;;;;;;;4970280;28;20042;-59
2023/09/17 04:27:54;;;;;;;259.10;77.00;;;;;;;;;;4975244;28;20026;-59
2023/09/17 04:30:19;;;;;;;369.98;82.75;;;;;;;;;;4973470;28;20030;-59
2023/09/17 04:32:46;;;;;;;388.08;82.90;;;;;;;;;;4972119;28;20027;-60
2023/09/17 04:35:12;;;;;;;284.52;79.93;;;;;;;;;;4973326;28;20050;-59
2023/09/17 04:37:38;;;;;;;297.88;80.32;;;;;;;;;;4971704;28;20015;-59
2023/09/17 04:40:13;;;;;;;342.48;81.75;;;;;;;;;;4972341;28;20033;-59
2023/09/17 04:42:39;;;;;;;283.27;79.50;;;;;;;;;;4980205;28;20753;-57
2023/09/17 04:45:05;;;;;;;296.08;79.80;;;;;;;;;;4981234;28;20060;-56
2023/09/17 04:47:32;;;;;;;397.65;85.57;;;;;;;;;;4971006;28;20411;-60
2023/09/17 04:49:58;;;;;;;295.02;80.95;;;;;;;;;;4973718;28;20046;-58
2023/09/17 04:52:23;;;;;;;446.23;87.45;;;;;;;;;;4969890;28;20034;-59
2023/09/17 04:54:48;;;;;;;285.77;80.73;;;;;;;;;;4973335;28;20409;-59
2023/09/17 04:57:13;;;;;;;270.92;80.35;;;;;;;;;;4973093;28;20439;-59
2023/09/17 04:59:38;;;;;;;344.53;82.83;;;;;;;;;;4971177;28;20013;-60
2023/09/17 05:02:04;;;;;;;227.77;80.10;;;;;;;;;;4973520;28;20375;-59
2023/09/17 05:04:29;;;;;;;361.27;84.13;;;;;;;;;;4973817;28;20395;-59
2023/09/17 05:06:54;;;;;;;349.85;83.05;;;;;;;;;;4970277;28;20042;-59
2023/09/17 05:09:20;;;;;;;337.20;79.05;;;;;;;;;;4971553;28;20026;-60
2023/09/17 05:11:45;;;;;;;607.65;91.03;;;;;;;;;;4971051;28;20031;-60
2023/09/17 05:14:11;;;;;;;352.02;79.43;;;;;;;;;;4970035;28;20099;-58
2023/09/17 05:16:37;;;;;;;423.02;82.32;;;;;;;;;;4970970;28;20035;-56
2023/09/17 05:19:03;;;;;;;275.02;77.40;;;;;;;;;;4971273;28;20056;-57
2023/09/17 05:21:29;;;;;;;459.02;84.90;;;;;;;;;;4969168;28;20034;-60
2023/09/17 05:23:54;;;;;;;270.45;79.78;;;;;;;;;;4971538;28;20696;-60
2023/09/17 05:26:21;;;;;;;304.70;79.27;;;;;;;;;;4971624;28;20027;-60
2023/09/17 05:28:46;;;;;;;360.88;82.43;;;;;;;;;;4977924;28;20266;-59
2023/09/17 05:31:12;;;;;;;256.57;77.77;;;;;;;;;;4979858;28;20394;-59
2023/09/17 05:33:37;;;;;;;430.13;84.75;;;;;;;;;;4970744;28;20255;-59
2023/09/17 05:36:03;;;;;;;310.23;80.82;;;;;;;;;;4969457;28;20031;-60
2023/09/17 05:38:28;;;;;;;394.65;84.90;;;;;;;;;;4970061;28;20094;-59
2023/09/17 05:40:53;;;;;;;293.55;80.32;;;;;;;;;;4971538;28;20046;-57
2023/09/17 05:43:19;;;;;;;333.45;81.30;;;;;;;;;;4972103;28;20179;-57
2023/09/17 05:45:45;;;;;;;291.85;74.45;;;;;;;;;;4973897;28;20072;-57
2023/09/17 05:48:10;;;;;;;284.38;77.40;;;;;;;;;;4970511;28;20417;-57
2023/09/17 05:50:36;;;;;;;440.43;85.83;;;;;;;;;;4969852;28;20023;-59
2023/09/17 05:53:01;;;;;;;266.55;78.00;;;;;;;;;;4973023;28;20328;-57
2023/09/17 05:55:28;;;;;;;428.33;84.30;;;;;;;;;;4969961;28;20034;-61
2023/09/17 05:57:54;;;;;;;282.65;80.13;;;;;;;;;;4973685;28;20086;-58
2023/09/17 06:00:19;;;;;;;273.07;80.50;;;;;;;;;;4972558;28;20125;-57
2023/09/17 06:02:44;;;;;;;358.95;81.30;;;;;;;;;;4971053;28;20261;-58
2023/09/17 06:05:10;;;;;;;272.63;79.57;;;;;;;;;;4972064;28;20074;-60
2023/09/17 06:07:35;;;;;;;399.17;84.15;;;;;;;;;;4969332;28;20018;-58
2023/09/17 06:10:00;;;;;;;316.75;78.70;;;;;;;;;;4971912;28;20043;-56
2023/09/17 06:12:26;;;;;;;392.33;81.80;;;;;;;;;;4972009;28;20074;-57
2023/09/17 06:14:51;;;;;;;268.92;75.88;;;;;;;;;;4970681;28;20430;-56
2023/09/17 06:17:16;;;;;;;309.40;74.67;;;;;;;;;;4973169;28;20042;-57
2023/09/17 06:19:42;;;;;;;287.30;73.33;;;;;;;;;;4971256;28;20273;-56
2023/09/17 06:22:08;;;;;;;207.05;69.72;;;;;;;;;;4972340;28;20272;-55
2023/09/17 06:24:33;;;;;;;326.35;54.80;;;;;;;;;;4970383;28;20039;-56
2023/09/17 06:26:58;;;;;;;190.80;53.30;;;;;;;;;;4972201;28;20035;-56
2023/09/17 06:29:23;;;;;;;196.63;53.07;;;;;;;;;;4970525;28;20037;-59
2023/09/17 06:31:49;;;;;;;316.87;55.90;;;;;;;;;;4972016;28;20038;-57
2023/09/17 06:34:14;;;;;;;157.60;50.67;;;;;;;;;;4979084;28;20023;-58
2023/09/17 06:36:39;;;;;;;360.17;57.53;;;;;;;;;;4969071;28;20460;-59
2023/09/17 06:39:05;;;;;;;242.57;50.17;;;;;;;;;;4972582;28;20258;-58
2023/09/17 06:41:31;;;;;;;284.15;51.47;;;;;;;;;;4969747;28;20070;-57
2023/09/17 06:43:57;;;;;;;151.35;48.63;;;;;;;;;;4970726;28;20046;-58
2023/09/17 06:46:23;;;;;;;234.77;52.03;;;;;;;;;;4971488;28;20043;-57
2023/09/17 06:48:49;;;;;;;207.82;52.80;;;;;;;;;;4972118;28;20465;-58
2023/09/17 06:51:14;;;;;;;200.45;53.40;;;;;;;;;;4971558;28;20543;-57
2023/09/17 06:53:39;;;;;;;322.80;58.50;;;;;;;;;;4973112;28;20033;-57
2023/09/17 06:56:05;;;;;;;166.88;53.33;;;;;;;;;;4971784;28;20023;-58
2023/09/17 06:58:30;;;;;;;344.48;60.67;;;;;;;;;;4971016;28;20026;-57
2023/09/17 07:00:56;;;;;;;196.73;49.25;;;;;;;;;;4970575;28;20199;-58
2023/09/17 07:03:21;;;;;;;214.10;49.60;;;;;;;;;;4972109;28;20073;-58
2023/09/17 07:05:47;;;;;;;258.77;52.10;;;;;;;;;;4969670;28;20030;-59
2023/09/17 07:08:12;;;;;;;208.25;50.33;;;;;;;;;;4971221;28;20823;-58
2023/09/17 07:10:37;;;;;;;307.10;53.60;;;;;;;;;;4969541;28;20034;-57
2023/09/17 07:13:02;;;;;;;239.03;49.17;;;;;;;;;;4970501;28;20253;-57
2023/09/17 07:15:28;;;;;;;212.98;47.53;;;;;;;;;;4968682;28;20558;-59
2023/09/17 07:17:53;;;;;;;175.68;45.97;;;;;;;;;;4970688;28;20049;-59
2023/09/17 07:20:19;;;;;;;253.77;49.72;;;;;;;;;;4969653;28;20141;-58
2023/09/17 07:22:45;;;;;;;210.32;48.10;;;;;;;;;;4971126;28;20025;-57
2023/09/17 07:25:10;;;;;;;152.10;46.97;;;;;;;;;;4969310;28;20038;-58
2023/09/17 07:27:35;;;;;;;383.50;56.60;;;;;;;;;;4971264;28;20038;-58
2023/09/17 07:30:01;;;;;;;171.98;46.78;;;;;;;;;;4969315;28;20018;-61
2023/09/17 07:32:27;;;;;;;211.97;82.30;;;;;;;;;;4969072;28;20097;-57
2023/09/17 07:34:52;;;;;;;241.80;39.40;;;;;;;;;;4969188;28;20261;-59
2023/09/17 07:37:19;;;;;;;255.50;161.07;;;;;;;;;;4968283;28;20105;-60
2023/09/17 07:39:46;;;;;;;418.83;169.15;;;;;;;;;;4968593;28;20345;-58
2023/09/17 07:42:11;;;;;;;187.45;15.90;;;;;;;;;;4969366;28;20050;-58
2023/09/17 07:44:37;;;;;;;380.70;185.53;;;;;;;;;;4969885;28;20080;-58
2023/09/17 07:47:02;;;;;;;249.00;119.47;;;;;;;;;;4966809;28;20157;-59
2023/09/17 07:49:28;;;;;;;387.75;221.57;;;;;;;;;;4969260;28;20265;-58
2023/09/17 07:51:53;;;;;;;401.25;351.13;;;;;;;;;;4970223;28;20035;-61
2023/09/17 07:54:18;;;;;;;404.57;310.27;;;;;;;;;;4971089;28;20029;-61
2023/09/17 07:56:44;;;;;;;568.03;386.37;;;;;;;;;;4967522;28;20101;-59
2023/09/17 07:59:10;;;;;;;452.90;398.13;;;;;;;;;;4971763;28;20475;-58
2023/09/17 08:01:35;;;;;;;543.20;317.70;;;;;;;;;;4970006;28;20046;-58
2023/09/17 08:04:00;;;;;;;402.17;282.53;;;;;;;;;;4970103;28;20470;-57
2023/09/17 08:06:25;;;;;;;316.23;254.98;;;;;;;;;;4969675;28;20065;-56
2023/09/17 08:08:51;;;;;;;331.70;231.60;;;;;;;;;;4967581;28;20406;-59
2023/09/17 08:11:16;;;;;;;386.02;322.17;;;;;;;;;;4968160;28;20117;-58
2023/09/17 08:13:42;;;;;;;402.85;276.02;;;;;;;;;;4969466;28;20542;-58
2023/09/17 08:16:07;;;;;;;431.40;379.67;;;;;;;;;;4967893;28;20030;-60
2023/09/17 08:18:32;;;;;;;434.63;318.17;;;;;;;;;;4969666;28;20038;-58
2023/09/17 08:20:58;;;;;;;321.77;275.73;;;;;;;;;;4969076;28;20042;-57
2023/09/17 08:23:24;;;;;;;506.85;412.67;;;;;;;;;;4970267;28;20085;-58
2023/09/17 08:25:50;;;;;;;449.35;402.75;;;;;;;;;;4968091;28;20046;-57
2023/09/17 08:28:16;;;;;;;440.73;350.55;;;;;;;;;;4969756;28;20479;-58
2023/09/17 08:30:41;;;;;;;502.58;265.60;;;;;;;;;;4970047;28;20041;-57
2023/09/17 08:33:09;;;;;;;294.97;248.60;;;;;;;;;;4971044;28;20738;-57
2023/09/17 08:35:35;;;;;;;422.05;268.83;;;;;;;;;;4968383;28;20097;-57
2023/09/17 08:38:00;;;;;;;453.95;396.98;;;;;;;;;;4970257;28;20035;-59
2023/09/17 08:40:27;;;;;;;398.67;356.73;;;;;;;;;;4971349;28;20101;-57
2023/09/17 08:42:53;;;;;;;421.83;376.00;;;;;;;;;;4972117;28;20282;-59
2023/09/17 08:45:19;;;;;;;502.40;434.42;;;;;;;;;;4971639;28;20038;-58
2023/09/17 08:47:44;;;;;;;393.65;292.77;;;;;;;;;;4973884;28;20406;-57
2023/09/17 08:50:09;;;;;;;466.58;415.75;;;;;;;;;;4971531;28;20014;-57
2023/09/17 08:52:37;;;;;;;470.80;338.15;;;;;;;;;;4970350;28;20317;-57
2023/09/17 08:55:04;;;;;;;402.25;352.70;;;;;;;;;;4971783;28;20027;-58
2023/09/17 08:57:30;;;;;;;379.75;236.57;;;;;;;;;;4976533;28;20066;-56
2023/09/17 09:00:08;;;;;;;331.63;215.13;;;;;;;;;;4976562;28;20515;-59
2023/09/17 09:02:36;;;;;;;427.90;342.70;;;;;;;;;;4975677;28;20045;-57
2023/09/17 09:05:02;;;;;;;350.08;268.77;;;;;;;;;;4980297;28;20439;-57
2023/09/17 09:07:28;;;;;;;421.13;302.15;;;;;;;;;;4969861;28;20038;-58
2023/09/17 09:09:54;;;;;;;346.00;237.68;;;;;;;;;;4970333;28;20031;-57
2023/09/17 09:12:19;;;;;;;368.52;289.90;;;;;;;;;;4973631;28;20035;-57
2023/09/17 09:14:46;;;;;;;379.13;292.73;;;;;;;;;;4976791;28;20141;-58
2023/09/17 09:17:11;;;;;;;293.58;233.40;;;;;;;;;;4973831;28;20525;-57
2023/09/17 09:19:37;;;;;;;337.48;227.93;;;;;;;;;;4974820;28;20039;-58
2023/09/17 09:22:02;;;;;;;494.50;410.38;;;;;;;;;;4975450;28;20038;-57
2023/09/17 09:24:46;;;;;;;332.15;218.15;;;;;;;;;;4973525;28;20490;-57
2023/09/17 09:27:11;;;;;;;355.10;302.40;;;;;;;;;;4972727;28;20451;-58
2023/09/17 09:29:36;;;;;;;454.83;293.53;;;;;;;;;;4974805;28;20525;-58
2023/09/17 09:32:02;;;;;;;302.70;194.33;;;;;;;;;;4974833;28;20262;-58
2023/09/17 09:34:27;;;;;;;287.90;235.50;;;;;;;;;;4974458;28;20035;-57
2023/09/17 09:36:53;;;;;;;424.70;302.53;;;;;;;;;;4973061;28;20414;-57
2023/09/17 09:39:20;;;;;;;356.77;287.17;;;;;;;;;;4974726;28;20033;-57
2023/09/17 09:41:45;;;;;;;391.77;238.43;;;;;;;;;;4972627;28;20065;-59
2023/09/17 09:44:12;;;;;;;417.75;267.17;;;;;;;;;;4974439;28;20101;-57
2023/09/17 09:46:37;;;;;;;367.58;223.60;;;;;;;;;;4972914;28;20047;-56
2023/09/17 09:49:03;;;;;;;317.75;264.83;;;;;;;;;;4972829;28;20027;-57
2023/09/17 09:51:32;;;;;;;469.25;360.02;;;;;;;;;;4972949;28;20030;-57
2023/09/17 09:53:57;;;;;;;433.02;375.40;;;;;;;;;;4973515;28;20490;-57
2023/09/17 09:56:27;;;;;;;383.00;341.33;;;;;;;;;;4973824;28;20039;-57
2023/09/17 09:58:53;;;;;;;456.02;396.27;;;;;;;;;;4973395;28;21379;-59
2023/09/17 10:01:18;;;;;;;492.70;334.70;;;;;;;;;;4974939;28;20034;-58
2023/09/17 10:03:44;;;;;;;403.20;234.57;;;;;;;;;;4972369;28;20557;-58
2023/09/17 10:06:09;;;;;;;317.63;283.97;;;;;;;;;;4973545;28;20490;-58
2023/09/17 10:08:37;;;;;;;344.58;256.50;;;;;;;;;;4974606;28;20265;-57
2023/09/17 10:11:03;;;;;;;415.27;271.63;;;;;;;;;;4974856;28;20124;-57
2023/09/17 10:13:28;;;;;;;369.20;268.48;;;;;;;;;;4974692;28;20423;-58
2023/09/17 10:15:55;;;;;;;475.95;363.05;;;;;;;;;;4973426;28;20022;-58
2023/09/17 10:18:20;;;;;;;530.42;376.90;;;;;;;;;;4973351;28;20387;-57
2023/09/17 10:20:47;;;;;;;432.25;272.25;;;;;;;;;;4972479;28;20490;-57
2023/09/17 10:23:15;;;;;;;341.98;262.73;;;;;;;;;;4973928;28;20033;-57
2023/09/17 10:25:41;;;;;;;395.08;209.55;;;;;;;;;;4973401;28;20537;-58
2023/09/17 10:28:07;;;;;;;598.42;239.77;;;;;;;;;;4975026;28;20392;-58
2023/09/17 10:30:33;;;;;;;532.80;394.00;;;;;;;;;;4971848;28;20061;-58
2023/09/17 10:33:00;;;;;;;368.60;287.00;;;;;;;;;;4972543;28;20019;-58
2023/09/17 10:35:25;;;;;;;265.90;227.88;;;;;;;;;;4974280;28;20050;-58
2023/09/17 10:37:52;;;;;;;386.08;251.88;;;;;;;;;;4976877;28;20129;-57
2023/09/17 10:40:17;;;;;;;291.13;253.63;;;;;;;;;;4973809;28;20359;-57
2023/09/17 10:42:43;;;;;;;363.20;232.23;;;;;;;;;;4972101;28;20014;-57
2023/09/17 10:45:10;;;;;;;424.50;278.20;;;;;;;;;;4974261;28;20382;-57
2023/09/17 10:47:36;;;;;;;318.95;214.73;;;;;;;;;;4975194;28;20030;-56
2023/09/17 10:50:04;;;;;;;328.90;291.70;;;;;;;;;;4972718;28;20096;-58
2023/09/17 10:52:30;;;;;;;536.05;432.30;;;;;;;;;;4971346;28;20035;-57
2023/09/17 10:54:55;;;;;;;362.42;299.67;;;;;;;;;;4972597;28;20462;-56
2023/09/17 10:57:32;;;;;;;220.63;74.13;;;;;;;;;;4974992;28;20031;-57
2023/09/17 10:59:58;;;;;;;318.05;248.57;;;;;;;;;;4972675;28;20394;-58
2023/09/17 11:02:25;;;;;;;263.17;107.22;;;;;;;;;;4972507;28;20566;-57
2023/09/17 11:04:51;;;;;;;281.08;63.20;;;;;;;;;;4971578;28;20070;-56
2023/09/17 11:07:16;;;;;;;347.67;221.93;;;;;;;;;;4971776;28;20026;-56
2023/09/17 11:09:42;;;;;;;400.05;298.83;;;;;;;;;;4981350;28;20011;-58
2023/09/17 11:12:07;;;;;;;375.83;145.05;;;;;;;;;;4971627;28;20039;-57
2023/09/17 11:14:33;;;;;;;284.02;165.32;;;;;;;;;;4972581;28;20038;-57
2023/09/17 11:16:59;;;;;;;371.70;309.67;;;;;;;;;;4971660;28;20038;-57
2023/09/17 11:19:24;;;;;;;383.17;299.58;;;;;;;;;;4971473;28;20514;-56
2023/09/17 11:22:06;;;;;;;324.43;203.67;;;;;;;;;;4978669;28;20042;-60
2023/09/17 11:24:32;;;;;;;526.20;395.02;;;;;;;;;;4981322;28;20027;-56
2023/09/17 11:26:58;;;;;;;318.92;261.20;;;;;;;;;;4974459;28;20114;-59
2023/09/17 11:29:42;;;;;;;365.55;276.30;;;;;;;;;;4972925;28;20019;-58
2023/09/17 11:32:08;;;;;;;262.40;206.00;;;;;;;;;;4972268;28;20544;-58
2023/09/17 11:34:35;;;;;;;294.00;215.95;;;;;;;;;;4970259;28;20014;-58
2023/09/17 11:37:01;;;;;;;330.98;229.15;;;;;;;;;;4970898;28;20569;-59
2023/09/17 11:39:26;;;;;;;297.90;184.60;;;;;;;;;;4974338;28;20033;-59
2023/09/17 11:41:55;;;;;;;340.15;220.60;;;;;;;;;;4971087;28;20033;-59
2023/09/17 11:44:20;;;;;;;360.15;255.20;;;;;;;;;;4973387;28;20030;-59
2023/09/17 11:46:46;;;;;;;453.10;293.38;;;;;;;;;;4970500;28;20414;-58
2023/09/17 11:49:11;;;;;;;335.57;251.73;;;;;;;;;;4971256;28;20033;-58
2023/09/17 11:51:43;;;;;;;437.88;334.52;;;;;;;;;;4972861;28;20251;-58
2023/09/17 11:54:15;;;;;;;441.42;282.65;;;;;;;;;;4971354;28;20025;-58
2023/09/17 11:56:49;;;;;;;298.80;78.53;;;;;;;;;;4971533;28;20461;-57
2023/09/17 11:59:16;;;;;;;338.65;265.15;;;;;;;;;;4972271;28;20026;-59
2023/09/17 12:01:43;;;;;;;512.65;291.77;;;;;;;;;;4971130;28;20038;-57
2023/09/17 12:04:09;;;;;;;407.63;217.98;;;;;;;;;;4972422;28;20259;-60
2023/09/17 12:06:42;;;;;;;329.17;250.55;;;;;;;;;;4970038;28;20039;-60
2023/09/17 12:09:21;;;;;;;350.60;238.70;;;;;;;;;;4971156;28;20465;-58
2023/09/17 12:11:47;;;;;;;410.95;265.02;;;;;;;;;;4970018;28;20034;-58
2023/09/17 12:14:13;;;;;;;535.50;377.20;;;;;;;;;;4972977;28;20021;-58
2023/09/17 12:16:38;;;;;;;387.70;297.20;;;;;;;;;;4970275;28;20042;-57
2023/09/17 12:19:03;;;;;;;287.48;219.45;;;;;;;;;;4971649;28;20022;-58
2023/09/17 12:21:31;;;;;;;348.45;209.55;;;;;;;;;;4969823;28;20534;-59
2023/09/17 12:24:09;;;;;;;443.90;293.60;;;;;;;;;;4970345;28;20034;-59
2023/09/17 12:26:56;;;;;;;360.73;128.77;;;;;;;;;;4971591;28;20046;-58
2023/09/17 12:29:21;;;;;;;347.73;264.73;;;;;;;;;;4971970;28;20049;-59
2023/09/17 12:31:46;;;;;;;509.87;243.00;;;;;;;;;;4978869;28;20027;-58
2023/09/17 12:34:12;;;;;;;280.35;147.45;;;;;;;;;;4976557;28;20011;-59
2023/09/17 12:36:38;;;;;;;284.88;170.88;;;;;;;;;;4972864;28;20030;-58
2023/09/17 12:39:04;;;;;;;324.42;113.53;;;;;;;;;;4969899;28;20355;-59
2023/09/17 12:41:29;;;;;;;331.70;220.73;;;;;;;;;;4970653;28;20041;-59
2023/09/17 12:43:54;;;;;;;560.60;384.70;;;;;;;;;;4970272;28;20023;-59
2023/09/17 12:46:20;;;;;;;375.83;222.73;;;;;;;;;;4972620;28;20239;-58
2023/09/17 12:48:45;;;;;;;387.58;234.27;;;;;;;;;;4973303;28;20120;-59
2023/09/17 12:51:11;;;;;;;393.80;317.93;;;;;;;;;;4973794;28;20027;-58
2023/09/17 12:53:36;;;;;;;990.67;433.13;;;;;;;;;;4975873;28;20497;-59
2023/09/17 12:56:01;;;;;;;293.57;237.73;;;;;;;;;;4973792;28;20030;-59
2023/09/17 12:58:30;;;;;;;462.50;377.73;;;;;;;;;;4976175;28;20254;-58
2023/09/17 13:01:05;;;;;;;412.17;243.27;;;;;;;;;;4982153;28;20042;-58
2023/09/17 13:03:30;;;;;;;453.77;292.48;;;;;;;;;;4982863;28;20419;-58
2023/09/17 13:05:56;;;;;;;626.30;443.53;;;;;;;;;;4978780;28;20069;-57
2023/09/17 13:08:24;;;;;;;464.20;385.85;;;;;;;;;;4972918;28;20273;-57
2023/09/17 13:10:49;;;;;;;431.50;237.20;;;;;;;;;;4973637;28;20485;-59
2023/09/17 13:13:15;;;;;;;518.90;383.33;;;;;;;;;;4974317;28;20480;-57
2023/09/17 13:15:41;;;;;;;318.45;209.40;;;;;;;;;;4972599;28;20034;-57
2023/09/17 13:18:07;;;;;;;459.38;307.35;;;;;;;;;;4975623;28;20018;-57
2023/09/17 13:20:32;;;;;;;470.40;323.80;;;;;;;;;;4973885;28;20470;-57
2023/09/17 13:22:58;;;;;;;594.50;475.27;;;;;;;;;;4973636;28;20685;-58
2023/09/17 13:25:23;;;;;;;392.52;269.05;;;;;;;;;;4974513;28;20113;-57
2023/09/17 13:27:48;;;;;;;467.90;299.45;;;;;;;;;;4973646;28;20532;-58
2023/09/17 13:30:15;;;;;;;416.83;355.30;;;;;;;;;;4974346;28;20023;-58
2023/09/17 13:32:41;;;;;;;391.50;265.90;;;;;;;;;;4972282;28;20512;-58
2023/09/17 13:35:10;;;;;;;335.83;293.67;;;;;;;;;;4975018;28;20129;-58
2023/09/17 13:37:37;;;;;;;605.75;424.05;;;;;;;;;;4974324;28;20423;-58
2023/09/17 13:40:04;;;;;;;390.20;175.63;;;;;;;;;;4973554;28;20027;-59
2023/09/17 13:42:29;;;;;;;262.42;152.38;;;;;;;;;;4972991;28;20039;-58
2023/09/17 13:44:56;;;;;;;470.43;373.10;;;;;;;;;;4973881;28;20105;-59
2023/09/17 13:47:21;;;;;;;421.10;254.32;;;;;;;;;;4971484;28;20034;-59
2023/09/17 13:49:46;;;;;;;457.33;315.30;;;;;;;;;;4972424;28;20025;-59
2023/09/17 13:52:12;;;;;;;377.93;297.47;;;;;;;;;;4971934;28;20055;-59